createdAt,value
2022-11-16T00:00:39.308Z,3.44
2022-11-16T00:03:06.262Z,3.33
2022-11-16T00:05:34.619Z,3.36
2022-11-16T00:08:02.522Z,3.31
2022-11-16T00:10:30.665Z,3.01
2022-11-16T00:12:57.791Z,3.20
2022-11-16T00:15:24.786Z,3.04
2022-11-16T00:17:51.905Z,3.09
2022-11-16T00:20:18.944Z,3.08
2022-11-16T00:22:49.337Z,2.77
2022-11-16T00:25:16.145Z,2.91
2022-11-16T00:27:43.288Z,3.03
2022-11-16T00:30:10.894Z,3.00
2022-11-16T00:32:37.687Z,3.08
2022-11-16T00:35:05.129Z,3.13
2022-11-16T00:37:32.124Z,3.12
2022-11-16T00:40:00.312Z,3.14
2022-11-16T00:42:27.270Z,3.11
2022-11-16T00:44:54.189Z,3.08
2022-11-16T00:47:22.070Z,3.08
2022-11-16T00:49:49.161Z,2.99
2022-11-16T00:52:16.983Z,3.03
2022-11-16T00:54:44.033Z,3.06
2022-11-16T00:57:12.305Z,3.01
2022-11-16T00:59:39.337Z,2.99
2022-11-16T01:02:06.105Z,3.04
2022-11-16T01:04:33.607Z,3.09
2022-11-16T01:07:03.013Z,3.04
2022-11-16T01:09:30.102Z,2.62
2022-11-16T01:11:56.976Z,2.68
2022-11-16T01:14:26.336Z,2.78
2022-11-16T01:16:53.461Z,2.80
2022-11-16T01:19:20.308Z,2.79
2022-11-16T01:21:47.108Z,2.92
2022-11-16T01:24:14.441Z,2.99
2022-11-16T01:26:41.233Z,2.96
2022-11-16T01:29:08.372Z,2.95
2022-11-16T01:31:36.532Z,3.00
2022-11-16T01:34:03.356Z,3.11
2022-11-16T01:36:30.359Z,3.16
2022-11-16T01:38:57.371Z,3.29
2022-11-16T01:41:25.856Z,3.22
2022-11-16T01:43:55.740Z,3.13
2022-11-16T01:46:22.944Z,3.06
2022-11-16T01:48:54.758Z,3.15
2022-11-16T01:51:23.686Z,3.05
2022-11-16T01:53:50.752Z,3.20
2022-11-16T01:56:18.078Z,3.12
2022-11-16T01:58:45.609Z,3.19
2022-11-16T02:01:13.174Z,3.18
2022-11-16T02:03:40.188Z,3.30
2022-11-16T02:06:28.894Z,3.22
2022-11-16T02:09:16.509Z,3.20
2022-11-16T02:11:59.535Z,3.20
2022-11-16T02:14:37.783Z,3.23
2022-11-16T02:17:14.283Z,3.25
2022-11-16T02:20:01.355Z,3.28
2022-11-16T02:22:49.910Z,3.51
2022-11-16T02:25:30.530Z,3.54
2022-11-16T02:28:16.530Z,3.50
2022-11-16T02:30:48.948Z,3.49
2022-11-16T02:33:21.104Z,3.60
2022-11-16T02:35:52.666Z,3.49
2022-11-16T02:38:25.901Z,3.48
2022-11-16T02:40:57.351Z,3.59
2022-11-16T02:43:29.433Z,3.58
2022-11-16T02:46:04.094Z,3.53
2022-11-16T02:48:37.978Z,3.56
2022-11-16T02:51:06.742Z,3.50
2022-11-16T02:53:39.187Z,3.35
2022-11-16T02:56:06.406Z,3.29
2022-11-16T02:58:33.899Z,3.30
2022-11-16T03:01:08.209Z,3.17
2022-11-16T03:03:40.805Z,3.32
2022-11-16T03:06:13.041Z,3.45
2022-11-16T03:08:45.046Z,3.38
2022-11-16T03:11:13.016Z,3.29
2022-11-16T03:13:40.884Z,3.26
2022-11-16T03:16:15.153Z,3.29
2022-11-16T03:18:45.955Z,3.36
2022-11-16T03:21:19.000Z,3.29
2022-11-16T03:23:46.667Z,3.41
2022-11-16T03:26:16.580Z,3.26
2022-11-16T03:28:50.387Z,3.31
2022-11-16T03:31:24.292Z,3.23
2022-11-16T03:33:54.263Z,3.42
2022-11-16T03:36:27.640Z,3.30
2022-11-16T03:38:58.092Z,3.30
2022-11-16T03:41:28.664Z,3.38
2022-11-16T03:43:59.127Z,3.35
2022-11-16T03:46:27.559Z,3.45
2022-11-16T03:48:57.729Z,3.36
2022-11-16T03:51:25.227Z,3.47
2022-11-16T03:53:52.281Z,3.32
2022-11-16T03:56:22.530Z,3.10
2022-11-16T03:58:49.654Z,3.20
2022-11-16T04:01:17.662Z,3.27
2022-11-16T04:03:45.937Z,3.37
2022-11-16T04:06:12.867Z,3.31
2022-11-16T04:08:40.312Z,3.21
2022-11-16T04:11:11.317Z,3.10
2022-11-16T04:13:40.326Z,3.20
2022-11-16T04:16:08.873Z,3.25
2022-11-16T04:18:36.344Z,3.28
2022-11-16T04:21:05.496Z,3.20
2022-11-16T04:23:32.599Z,3.06
2022-11-16T04:26:00.010Z,3.10
2022-11-16T04:28:32.962Z,2.98
2022-11-16T04:31:02.967Z,2.93
2022-11-16T04:33:35.529Z,2.91
2022-11-16T04:36:02.462Z,2.74
2022-11-16T04:38:34.449Z,2.73
2022-11-16T04:41:01.515Z,2.86
2022-11-16T04:43:28.427Z,3.02
2022-11-16T04:45:55.186Z,3.07
2022-11-16T04:48:22.114Z,3.09
2022-11-16T04:50:49.094Z,2.93
2022-11-16T04:53:19.475Z,3.09
2022-11-16T04:55:47.670Z,2.97
2022-11-16T04:58:15.529Z,3.03
2022-11-16T05:00:42.347Z,2.90
2022-11-16T05:03:09.098Z,3.09
2022-11-16T05:05:36.658Z,2.98
2022-11-16T05:08:03.511Z,2.87
2022-11-16T05:10:30.546Z,2.91
2022-11-16T05:12:59.034Z,2.91
2022-11-16T05:15:25.794Z,2.83
2022-11-16T05:17:52.548Z,2.82
2022-11-16T05:20:19.331Z,2.76
2022-11-16T05:22:52.701Z,2.76
2022-11-16T05:25:19.977Z,2.83
2022-11-16T05:27:46.776Z,2.83
2022-11-16T05:30:15.837Z,2.82
2022-11-16T05:32:42.706Z,2.94
2022-11-16T05:35:09.615Z,2.86
2022-11-16T05:37:36.485Z,2.91
2022-11-16T05:40:04.380Z,2.88
2022-11-16T05:42:31.537Z,2.78
2022-11-16T05:44:58.450Z,2.88
2022-11-16T05:47:26.779Z,2.83
2022-11-16T05:49:53.594Z,2.80
2022-11-16T05:52:21.593Z,2.79
2022-11-16T05:54:48.449Z,2.80
2022-11-16T05:57:16.495Z,2.82
2022-11-16T05:59:43.493Z,2.82
2022-11-16T06:02:15.197Z,2.90
2022-11-16T06:04:57.664Z,2.90
2022-11-16T06:07:31.670Z,2.84
2022-11-16T06:10:07.585Z,2.98
2022-11-16T06:12:36.919Z,2.99
2022-11-16T06:15:04.450Z,2.97
2022-11-16T06:17:32.486Z,3.09
2022-11-16T06:20:00.606Z,3.15
2022-11-16T06:22:29.052Z,3.16
2022-11-16T06:24:57.139Z,3.08
2022-11-16T06:27:25.805Z,3.08
2022-11-16T06:29:54.691Z,3.16
2022-11-16T06:32:21.968Z,3.14
2022-11-16T06:34:49.893Z,3.08
2022-11-16T06:37:18.153Z,3.11
2022-11-16T06:39:46.045Z,3.17
2022-11-16T06:42:12.939Z,3.19
2022-11-16T06:44:39.885Z,3.22
2022-11-16T06:47:07.212Z,3.26
2022-11-16T06:49:35.384Z,3.39
2022-11-16T06:52:05.302Z,3.39
2022-11-16T06:54:38.402Z,3.40
2022-11-16T06:57:06.483Z,3.41
2022-11-16T06:59:35.206Z,3.46
2022-11-16T07:02:07.242Z,3.66
2022-11-16T07:04:37.803Z,3.59
2022-11-16T07:07:05.014Z,3.60
2022-11-16T07:09:34.672Z,3.59
2022-11-16T07:12:01.826Z,3.62
2022-11-16T07:14:29.030Z,3.64
2022-11-16T07:17:00.397Z,3.66
2022-11-16T07:19:31.559Z,3.66
2022-11-16T07:21:58.797Z,3.77
2022-11-16T07:24:27.685Z,3.94
2022-11-16T07:27:01.790Z,3.93
2022-11-16T07:29:31.774Z,3.80
2022-11-16T07:31:59.782Z,3.79
2022-11-16T07:34:26.652Z,3.78
2022-11-16T07:36:54.024Z,3.78
2022-11-16T07:39:22.091Z,3.80
2022-11-16T07:41:51.945Z,3.85
2022-11-16T07:44:22.354Z,3.90
2022-11-16T07:46:50.569Z,3.96
2022-11-16T07:49:18.497Z,3.97
2022-11-16T07:51:45.779Z,3.99
2022-11-16T07:54:16.894Z,4.02
2022-11-16T07:56:44.769Z,3.99
2022-11-16T07:59:11.708Z,4.15
2022-11-16T08:01:41.910Z,4.16
2022-11-16T08:04:09.472Z,4.16
2022-11-16T08:06:37.597Z,4.20
2022-11-16T08:09:04.648Z,4.24
2022-11-16T08:11:31.500Z,4.30
2022-11-16T08:13:59.218Z,4.33
2022-11-16T08:16:26.658Z,4.38
2022-11-16T08:18:56.224Z,4.43
2022-11-16T08:21:22.994Z,4.45
2022-11-16T08:23:56.752Z,4.48
2022-11-16T08:26:25.461Z,4.48
2022-11-16T08:28:52.726Z,4.50
2022-11-16T08:31:21.238Z,4.51
2022-11-16T08:33:48.393Z,4.54
2022-11-16T08:36:17.516Z,4.52
2022-11-16T08:38:45.645Z,4.50
2022-11-16T08:41:13.121Z,4.51
2022-11-16T08:43:40.046Z,4.49
2022-11-16T08:46:07.296Z,4.48
2022-11-16T08:48:35.652Z,4.50
2022-11-16T08:51:21.357Z,4.50
2022-11-16T08:53:49.838Z,4.54
2022-11-16T08:56:19.291Z,4.56
2022-11-16T08:58:47.577Z,4.51
2022-11-16T09:01:17.889Z,4.51
2022-11-16T09:03:45.190Z,4.61
2022-11-16T09:06:15.548Z,4.58
2022-11-16T09:08:45.654Z,4.59
2022-11-16T09:11:17.415Z,4.58
2022-11-16T09:13:44.962Z,4.56
2022-11-16T09:16:13.951Z,4.57
2022-11-16T09:18:42.427Z,4.63
2022-11-16T09:21:09.534Z,4.68
2022-11-16T09:23:36.825Z,4.74
2022-11-16T09:26:05.588Z,4.79
2022-11-16T09:28:34.412Z,4.82
2022-11-16T09:31:04.601Z,4.84
2022-11-16T09:33:33.679Z,4.85
2022-11-16T09:36:06.091Z,4.88
2022-11-16T09:38:47.438Z,4.91
2022-11-16T09:41:40.930Z,4.95
2022-11-16T09:44:23.751Z,4.98
2022-11-16T09:46:58.259Z,5.01
2022-11-16T09:49:30.098Z,5.03
2022-11-16T09:52:02.669Z,5.08
2022-11-16T09:54:34.290Z,5.12
2022-11-16T09:57:11.068Z,5.16
2022-11-16T09:59:46.017Z,5.20
2022-11-16T10:02:22.692Z,5.23
2022-11-16T10:04:58.410Z,5.22
2022-11-16T10:07:33.248Z,5.21
2022-11-16T10:10:00.390Z,5.23
2022-11-16T10:12:38.995Z,5.26
2022-11-16T10:15:29.384Z,5.28
2022-11-16T10:18:13.425Z,5.34
2022-11-16T10:21:07.523Z,5.25
2022-11-16T10:23:56.705Z,5.19
2022-11-16T10:26:31.563Z,5.23
2022-11-16T10:29:19.508Z,5.25
2022-11-16T10:32:10.343Z,5.28
2022-11-16T10:34:47.878Z,5.30
2022-11-16T10:37:14.920Z,5.30
2022-11-16T10:39:47.738Z,5.30
2022-11-16T10:42:21.977Z,5.30
2022-11-16T10:44:56.890Z,5.29
2022-11-16T10:47:33.893Z,5.28
2022-11-16T10:50:03.567Z,5.27
2022-11-16T10:52:30.313Z,5.27
2022-11-16T10:54:59.609Z,5.26
2022-11-16T10:58:01.627Z,5.19
2022-11-16T11:00:42.341Z,5.26
2022-11-16T11:03:10.714Z,5.29
2022-11-16T11:05:48.412Z,5.32
2022-11-16T11:08:26.252Z,5.34
2022-11-16T11:11:02.534Z,5.37
2022-11-16T11:13:29.424Z,5.39
2022-11-16T11:16:15.174Z,5.46
2022-11-16T11:18:44.589Z,5.50
2022-11-16T11:21:17.939Z,5.54
2022-11-16T11:23:49.916Z,5.60
2022-11-16T11:26:36.153Z,5.66
2022-11-16T11:29:15.606Z,5.67
2022-11-16T11:31:46.242Z,5.73
2022-11-16T11:34:20.793Z,5.76
2022-11-16T11:36:52.988Z,5.78
2022-11-16T11:39:29.619Z,5.82
2022-11-16T11:42:08.944Z,5.79
2022-11-16T11:44:44.140Z,5.76
2022-11-16T11:47:56.116Z,5.77
2022-11-16T11:50:19.699Z,5.75
2022-11-16T11:53:01.274Z,5.77
2022-11-16T11:55:29.588Z,5.77
2022-11-16T11:57:58.754Z,5.76
2022-11-16T12:00:26.581Z,5.77
2022-11-16T12:03:26.390Z,5.75
2022-11-16T12:06:11.021Z,5.73
2022-11-16T12:09:09.933Z,5.75
2022-11-16T12:11:51.522Z,5.76
2022-11-16T12:14:33.878Z,5.77
2022-11-16T12:17:07.773Z,5.77
2022-11-16T12:19:58.384Z,5.68
2022-11-16T12:22:43.489Z,5.68
2022-11-16T12:25:22.385Z,5.69
2022-11-16T12:28:07.357Z,5.66
2022-11-16T12:30:45.221Z,5.60
2022-11-16T12:33:24.653Z,5.61
2022-11-16T12:36:01.423Z,5.64
2022-11-16T12:38:53.685Z,5.68
2022-11-16T12:41:46.211Z,5.70
2022-11-16T12:44:22.241Z,5.49
2022-11-16T12:47:00.302Z,5.44
2022-11-16T12:49:57.760Z,5.39
2022-11-16T12:52:43.389Z,5.28
2022-11-16T12:55:26.668Z,5.44
2022-11-16T12:58:07.438Z,5.37
2022-11-16T13:00:50.671Z,5.29
2022-11-16T13:03:25.477Z,5.25
2022-11-16T13:06:00.105Z,5.28
2022-11-16T13:08:40.052Z,5.25
2022-11-16T13:11:16.266Z,5.24
2022-11-16T13:13:49.630Z,5.27
2022-11-16T13:16:21.280Z,5.31
2022-11-16T13:18:48.486Z,5.33
2022-11-16T13:21:26.104Z,5.37
2022-11-16T13:24:21.058Z,5.38
2022-11-16T13:26:57.549Z,5.34
2022-11-16T13:29:32.508Z,5.21
2022-11-16T13:32:08.789Z,5.24
2022-11-16T13:34:39.388Z,5.14
2022-11-16T13:37:40.284Z,5.10
2022-11-16T13:40:22.797Z,5.13
2022-11-16T13:43:14.817Z,5.15
2022-11-16T13:45:53.833Z,5.18
2022-11-16T13:48:23.637Z,5.22
2022-11-16T13:50:54.857Z,5.26
2022-11-16T13:56:18.142Z,5.30
2022-11-16T13:58:50.078Z,5.31
2022-11-16T14:01:23.843Z,5.33
2022-11-16T14:03:52.332Z,5.33
2022-11-16T14:06:59.413Z,5.35
2022-11-16T14:09:47.300Z,5.33
2022-11-16T14:12:49.270Z,5.31
2022-11-16T14:15:21.769Z,5.21
2022-11-16T14:18:21.603Z,5.19
2022-11-16T14:20:59.072Z,5.14
2022-11-16T14:23:56.246Z,5.16
2022-11-16T14:26:37.356Z,5.16
2022-11-16T14:29:33.809Z,5.17
2022-11-16T14:32:03.400Z,5.13
2022-11-16T14:34:33.449Z,5.13
2022-11-16T14:37:03.229Z,5.22
2022-11-16T14:39:36.536Z,5.11
2022-11-16T14:42:07.215Z,4.99
2022-11-16T14:44:37.811Z,5.04
2022-11-16T14:47:06.085Z,5.02
2022-11-16T14:49:35.883Z,4.96
2022-11-16T14:52:06.186Z,4.96
2022-11-16T14:54:38.300Z,4.95
2022-11-16T14:57:10.823Z,4.95
2022-11-16T14:59:37.678Z,4.89
2022-11-16T15:02:16.758Z,4.79
2022-11-16T15:04:44.707Z,4.75
2022-11-16T15:07:15.587Z,4.69
2022-11-16T15:09:47.467Z,4.68
2022-11-16T15:12:17.954Z,4.72
2022-11-16T15:14:50.150Z,4.71
2022-11-16T15:17:19.410Z,4.77
2022-11-16T15:19:55.278Z,4.76
2022-11-16T15:22:26.474Z,4.78
2022-11-16T15:24:58.406Z,4.79
2022-11-16T15:27:33.959Z,4.76
2022-11-16T15:30:04.616Z,4.75
2022-11-16T15:32:31.461Z,4.75
2022-11-16T15:35:05.174Z,4.77
2022-11-16T15:37:35.978Z,4.75
2022-11-16T15:40:05.703Z,4.77
2022-11-16T15:42:33.388Z,4.74
2022-11-16T15:45:12.865Z,4.69
2022-11-16T15:47:43.309Z,4.62
2022-11-16T15:50:17.595Z,4.62
2022-11-16T15:52:47.511Z,4.59
2022-11-16T15:55:25.838Z,4.58
2022-11-16T15:58:05.368Z,4.59
2022-11-16T16:00:36.301Z,4.60
2022-11-16T16:03:06.313Z,4.61
2022-11-16T16:05:36.544Z,4.54
2022-11-16T16:08:06.055Z,4.52
2022-11-16T16:10:33.206Z,4.49
2022-11-16T16:13:01.406Z,4.42
2022-11-16T16:15:30.563Z,4.48
2022-11-16T16:17:58.794Z,4.64
2022-11-16T16:36:50.089Z,4.47
2022-11-16T16:39:17.209Z,4.45
2022-11-16T16:41:44.118Z,4.45
2022-11-16T16:44:15.059Z,4.52
2022-11-16T16:46:44.336Z,4.37
2022-11-16T16:49:11.113Z,4.46
2022-11-16T16:51:38.346Z,4.40
2022-11-16T16:54:09.658Z,4.41
2022-11-16T16:56:37.982Z,4.35
2022-11-16T16:59:05.283Z,4.43
2022-11-16T17:01:32.253Z,4.46
2022-11-16T17:07:13.196Z,4.42
2022-11-16T17:09:49.227Z,4.40
2022-11-16T17:12:35.380Z,4.49
2022-11-16T17:15:13.902Z,4.46
2022-11-16T17:18:03.363Z,4.43
2022-11-16T17:20:35.639Z,4.36
2022-11-16T17:23:12.832Z,4.27
2022-11-16T17:25:46.100Z,4.20
2022-11-16T17:28:17.772Z,4.22
2022-11-16T17:30:46.310Z,4.24
2022-11-16T17:33:17.647Z,4.18
2022-11-16T17:38:49.541Z,4.28
2022-11-16T17:41:31.149Z,4.25
2022-11-16T17:44:00.423Z,4.25
2022-11-16T17:46:27.658Z,4.24
2022-11-16T17:48:54.690Z,4.19
2022-11-16T17:51:24.835Z,4.19
2022-11-16T17:53:52.533Z,4.15
2022-11-16T17:56:22.403Z,4.18
2022-11-16T17:58:50.355Z,4.18
2022-11-16T18:01:17.379Z,4.16
2022-11-16T18:03:44.643Z,4.16
2022-11-16T18:06:13.689Z,4.38
2022-11-16T18:08:41.522Z,4.37
2022-11-16T18:11:12.125Z,4.33
2022-11-16T18:13:40.953Z,4.38
2022-11-16T18:16:11.026Z,4.32
2022-11-16T18:18:39.289Z,4.21
2022-11-16T18:21:07.392Z,4.15
2022-11-16T18:23:35.798Z,4.09
2022-11-16T18:26:06.974Z,4.22
2022-11-16T18:28:34.442Z,4.21
2022-11-16T18:31:05.201Z,4.17
2022-11-16T18:33:35.529Z,4.13
2022-11-16T18:36:03.581Z,4.07
2022-11-16T18:38:31.263Z,4.03
2022-11-16T18:41:05.842Z,3.94
2022-11-16T18:43:33.246Z,3.91
2022-11-16T18:46:00.680Z,3.93
2022-11-16T18:48:29.560Z,4.06
2022-11-16T18:50:58.346Z,4.11
2022-11-16T18:53:27.537Z,4.00
2022-11-16T18:55:57.823Z,3.91
2022-11-16T18:58:49.276Z,3.74
2022-11-16T19:01:15.076Z,3.82
2022-11-16T19:03:44.130Z,3.76
2022-11-16T19:06:11.567Z,3.76
2022-11-16T19:08:40.890Z,3.74
2022-11-16T19:11:09.386Z,3.80
2022-11-16T19:13:39.245Z,3.80
2022-11-16T19:16:06.857Z,3.73
2022-11-16T19:18:35.492Z,3.65
2022-11-16T19:21:05.183Z,3.68
2022-11-16T19:23:36.071Z,3.71
2022-11-16T19:26:04.242Z,3.60
2022-11-16T19:28:35.021Z,3.46
2022-11-16T19:31:08.253Z,3.23
2022-11-16T19:33:35.407Z,3.20
2022-11-16T19:36:12.245Z,3.04
2022-11-16T19:38:40.599Z,3.03
2022-11-16T19:41:09.806Z,3.03
2022-11-16T19:43:37.704Z,2.97
2022-11-16T19:46:09.022Z,2.99
2022-11-16T19:48:36.717Z,3.03
2022-11-16T19:51:05.372Z,3.13
2022-11-16T19:53:33.986Z,3.25
2022-11-16T19:56:01.103Z,3.28
2022-11-16T19:58:28.244Z,3.30
2022-11-16T20:01:00.705Z,3.25
2022-11-16T20:03:27.921Z,3.29
2022-11-16T20:06:04.247Z,3.37
2022-11-16T20:08:34.048Z,3.43
2022-11-16T20:11:01.038Z,3.44
2022-11-16T20:13:31.947Z,3.51
2022-11-16T20:16:01.785Z,3.53
2022-11-16T20:18:30.207Z,3.54
2022-11-16T20:21:00.559Z,3.55
2022-11-16T20:23:27.599Z,3.48
2022-11-16T20:25:55.872Z,3.39
2022-11-16T20:28:24.907Z,3.34
2022-11-16T20:30:51.754Z,3.25
2022-11-16T20:33:19.064Z,3.13
2022-11-16T20:35:46.455Z,3.13
2022-11-16T20:38:14.340Z,3.06
2022-11-16T20:40:45.005Z,2.89
2022-11-16T20:43:13.379Z,2.91
2022-11-16T20:45:41.352Z,2.99
2022-11-16T20:48:08.128Z,2.90
2022-11-16T20:50:35.117Z,2.92
2022-11-16T20:53:02.102Z,2.83
2022-11-16T20:55:30.056Z,2.93
2022-11-16T20:57:56.837Z,2.93
2022-11-16T21:00:25.194Z,2.92
2022-11-16T21:02:51.921Z,2.92
2022-11-16T21:05:20.875Z,2.98
2022-11-16T21:07:47.686Z,2.92
2022-11-16T21:10:16.712Z,2.99
2022-11-16T21:12:43.483Z,3.02
2022-11-16T21:15:10.903Z,2.97
2022-11-16T21:17:40.420Z,2.97
2022-11-16T21:22:56.761Z,2.96
2022-11-16T21:25:23.595Z,2.92
2022-11-16T21:27:50.716Z,2.81
2022-11-16T21:30:17.855Z,2.89
2022-11-16T21:32:46.401Z,2.82
2022-11-16T21:35:13.244Z,2.82
2022-11-16T21:37:42.207Z,2.83
2022-11-16T21:40:11.177Z,2.79
2022-11-16T21:42:38.009Z,2.67
2022-11-16T21:45:05.302Z,2.67
2022-11-16T21:47:32.462Z,2.63
2022-11-16T21:50:30.673Z,2.58
2022-11-16T21:52:52.664Z,2.53
2022-11-16T21:55:19.477Z,2.45
2022-11-16T21:57:46.783Z,2.36
2022-11-16T22:00:14.807Z,2.26
2022-11-16T22:02:42.031Z,2.31
2022-11-16T22:05:10.901Z,2.30
2022-11-16T22:07:40.382Z,2.23
2022-11-16T22:10:10.139Z,2.27
2022-11-16T22:12:39.733Z,2.24
2022-11-16T22:15:08.222Z,2.12
2022-11-16T22:17:36.111Z,2.04
2022-11-16T22:20:03.356Z,2.03
2022-11-16T22:22:31.567Z,2.01
2022-11-16T22:24:59.666Z,2.01
2022-11-16T22:27:27.137Z,1.89
2022-11-16T22:29:54.988Z,1.85
2022-11-16T22:32:21.783Z,1.91
2022-11-16T22:38:19.205Z,1.97
2022-11-16T22:40:55.464Z,1.94
2022-11-16T22:47:12.198Z,1.80
2022-11-16T22:53:34.749Z,2.02
2022-11-16T22:56:15.217Z,2.05
2022-11-16T23:02:37.782Z,2.13
2022-11-16T23:08:55.843Z,2.25
2022-11-16T23:11:35.790Z,2.31
2022-11-16T23:17:57.745Z,2.43
2022-11-16T23:24:21.741Z,2.57
2022-11-16T23:26:56.357Z,2.55
2022-11-16T23:33:17.595Z,2.60
2022-11-16T23:39:41.490Z,2.70
2022-11-16T23:42:29.840Z,2.74
2022-11-16T23:49:05.311Z,2.68
2022-11-16T23:55:28.387Z,2.75
2022-11-16T23:57:56.150Z,2.71
